sensor_id;sensor_type;location;lat;lon;timestamp;P1;durP1;ratioP1;P2;durP2;ratioP2
12921;SDS011;6528;48.086;16.282;2024-01-15T00:01:17;1.90;;;1.70;;
12921;SDS011;6528;48.086;16.282;2024-01-15T00:03:44;1.83;;;1.73;;
12921;SDS011;6528;48.086;16.282;2024-01-15T00:06:13;1.97;;;1.87;;
12921;SDS011;6528;48.086;16.282;2024-01-15T00:08:41;2.40;;;2.20;;
12921;SDS011;6528;48.086;16.282;2024-01-15T00:11:08;1.80;;;1.70;;
12921;SDS011;6528;48.086;16.282;2024-01-15T00:13:35;2.00;;;1.90;;
12921;SDS011;6528;48.086;16.282;2024-01-15T00:16:06;2.57;;;2.30;;
12921;SDS011;6528;48.086;16.282;2024-01-15T00:18:33;2.10;;;2.00;;
12921;SDS011;6528;48.086;16.282;2024-01-15T00:21:01;2.13;;;2.03;;
12921;SDS011;6528;48.086;16.282;2024-01-15T00:23:30;2.37;;;2.17;;
12921;SDS011;6528;48.086;16.282;2024-01-15T00:25:57;1.87;;;1.77;;
12921;SDS011;6528;48.086;16.282;2024-01-15T00:28:24;2.20;;;2.00;;
12921;SDS011;6528;48.086;16.282;2024-01-15T00:30:52;2.20;;;2.00;;
12921;SDS011;6528;48.086;16.282;2024-01-15T00:33:20;1.87;;;1.77;;
12921;SDS011;6528;48.086;16.282;2024-01-15T00:35:47;1.77;;;1.67;;
12921;SDS011;6528;48.086;16.282;2024-01-15T00:38:15;2.40;;;2.07;;
12921;SDS011;6528;48.086;16.282;2024-01-15T00:40:42;1.87;;;1.77;;
12921;SDS011;6528;48.086;16.282;2024-01-15T00:43:09;2.00;;;1.90;;
12921;SDS011;6528;48.086;16.282;2024-01-15T00:45:37;2.43;;;2.23;;
12921;SDS011;6528;48.086;16.282;2024-01-15T00:48:05;2.60;;;2.40;;
12921;SDS011;6528;48.086;16.282;2024-01-15T00:50:33;1.97;;;1.87;;
12921;SDS011;6528;48.086;16.282;2024-01-15T00:53:00;2.57;;;2.37;;
12921;SDS011;6528;48.086;16.282;2024-01-15T00:55:28;2.23;;;2.03;;
12921;SDS011;6528;48.086;16.282;2024-01-15T00:57:56;2.27;;;2.07;;
12921;SDS011;6528;48.086;16.282;2024-01-15T01:00:23;2.20;;;2.10;;
12921;SDS011;6528;48.086;16.282;2024-01-15T01:02:50;1.70;;;1.60;;
12921;SDS011;6528;48.086;16.282;2024-01-15T01:05:18;2.10;;;2.00;;
12921;SDS011;6528;48.086;16.282;2024-01-15T01:07:45;2.37;;;2.17;;
12921;SDS011;6528;48.086;16.282;2024-01-15T01:10:13;2.30;;;2.10;;
12921;SDS011;6528;48.086;16.282;2024-01-15T01:12:40;1.73;;;1.63;;
12921;SDS011;6528;48.086;16.282;2024-01-15T01:15:08;1.80;;;1.70;;
12921;SDS011;6528;48.086;16.282;2024-01-15T01:17:36;2.57;;;2.37;;
12921;SDS011;6528;48.086;16.282;2024-01-15T01:20:04;2.10;;;2.00;;
12921;SDS011;6528;48.086;16.282;2024-01-15T01:22:35;1.93;;;1.70;;
12921;SDS011;6528;48.086;16.282;2024-01-15T01:25:03;1.93;;;1.83;;
12921;SDS011;6528;48.086;16.282;2024-01-15T01:27:30;2.47;;;2.27;;
12921;SDS011;6528;48.086;16.282;2024-01-15T01:29:58;2.60;;;2.40;;
12921;SDS011;6528;48.086;16.282;2024-01-15T01:32:25;2.57;;;2.37;;
12921;SDS011;6528;48.086;16.282;2024-01-15T01:34:53;2.30;;;2.13;;
12921;SDS011;6528;48.086;16.282;2024-01-15T01:37:21;2.40;;;2.20;;
12921;SDS011;6528;48.086;16.282;2024-01-15T01:39:48;2.70;;;2.50;;
12921;SDS011;6528;48.086;16.282;2024-01-15T01:42:16;2.33;;;2.23;;
12921;SDS011;6528;48.086;16.282;2024-01-15T01:44:43;2.23;;;2.07;;
12921;SDS011;6528;48.086;16.282;2024-01-15T01:47:10;2.33;;;2.10;;
12921;SDS011;6528;48.086;16.282;2024-01-15T01:49:38;2.80;;;2.60;;
12921;SDS011;6528;48.086;16.282;2024-01-15T01:52:06;2.30;;;2.17;;
12921;SDS011;6528;48.086;16.282;2024-01-15T01:54:34;2.70;;;2.50;;
12921;SDS011;6528;48.086;16.282;2024-01-15T01:57:03;2.00;;;1.90;;
12921;SDS011;6528;48.086;16.282;2024-01-15T01:59:33;2.57;;;2.20;;
12921;SDS011;6528;48.086;16.282;2024-01-15T02:02:02;2.53;;;2.33;;
12921;SDS011;6528;48.086;16.282;2024-01-15T02:04:31;3.00;;;2.37;;
12921;SDS011;6528;48.086;16.282;2024-01-15T02:06:59;2.30;;;2.20;;
12921;SDS011;6528;48.086;16.282;2024-01-15T02:09:27;4.17;;;2.40;;
12921;SDS011;6528;48.086;16.282;2024-01-15T02:11:55;2.97;;;2.40;;
12921;SDS011;6528;48.086;16.282;2024-01-15T02:14:22;2.50;;;2.30;;
12921;SDS011;6528;48.086;16.282;2024-01-15T02:16:50;2.40;;;2.20;;
12921;SDS011;6528;48.086;16.282;2024-01-15T02:19:17;2.60;;;2.40;;
12921;SDS011;6528;48.086;16.282;2024-01-15T02:21:45;2.13;;;2.00;;
12921;SDS011;6528;48.086;16.282;2024-01-15T02:24:13;2.07;;;1.90;;
12921;SDS011;6528;48.086;16.282;2024-01-15T02:26:41;2.47;;;2.20;;
12921;SDS011;6528;48.086;16.282;2024-01-15T02:29:09;2.40;;;2.30;;
12921;SDS011;6528;48.086;16.282;2024-01-15T02:31:38;2.40;;;2.20;;
12921;SDS011;6528;48.086;16.282;2024-01-15T02:34:06;2.70;;;2.50;;
12921;SDS011;6528;48.086;16.282;2024-01-15T02:36:34;2.70;;;2.50;;
12921;SDS011;6528;48.086;16.282;2024-01-15T02:39:01;2.87;;;2.67;;
12921;SDS011;6528;48.086;16.282;2024-01-15T02:41:28;2.43;;;1.90;;
12921;SDS011;6528;48.086;16.282;2024-01-15T02:43:56;2.30;;;2.17;;
12921;SDS011;6528;48.086;16.282;2024-01-15T02:46:23;3.03;;;2.83;;
12921;SDS011;6528;48.086;16.282;2024-01-15T02:48:50;1.97;;;1.87;;
12921;SDS011;6528;48.086;16.282;2024-01-15T02:51:18;2.50;;;2.23;;
12921;SDS011;6528;48.086;16.282;2024-01-15T02:53:46;2.50;;;2.30;;
12921;SDS011;6528;48.086;16.282;2024-01-15T02:56:13;2.37;;;2.20;;
12921;SDS011;6528;48.086;16.282;2024-01-15T02:58:41;2.00;;;1.90;;
12921;SDS011;6528;48.086;16.282;2024-01-15T03:01:08;2.13;;;2.03;;
12921;SDS011;6528;48.086;16.282;2024-01-15T03:03:36;2.30;;;2.10;;
12921;SDS011;6528;48.086;16.282;2024-01-15T03:06:03;2.10;;;1.97;;
12921;SDS011;6528;48.086;16.282;2024-01-15T03:08:31;2.23;;;2.13;;
12921;SDS011;6528;48.086;16.282;2024-01-15T03:10:59;2.60;;;2.40;;
12921;SDS011;6528;48.086;16.282;2024-01-15T03:13:26;2.03;;;1.93;;
12921;SDS011;6528;48.086;16.282;2024-01-15T03:15:54;2.30;;;2.20;;
12921;SDS011;6528;48.086;16.282;2024-01-15T03:18:21;3.30;;;2.43;;
12921;SDS011;6528;48.086;16.282;2024-01-15T03:20:49;2.10;;;2.00;;
12921;SDS011;6528;48.086;16.282;2024-01-15T03:23:16;2.20;;;1.90;;
12921;SDS011;6528;48.086;16.282;2024-01-15T03:25:43;2.33;;;2.13;;
12921;SDS011;6528;48.086;16.282;2024-01-15T03:28:11;2.03;;;1.90;;
12921;SDS011;6528;48.086;16.282;2024-01-15T03:30:38;2.17;;;1.97;;
12921;SDS011;6528;48.086;16.282;2024-01-15T03:33:06;1.70;;;1.60;;
12921;SDS011;6528;48.086;16.282;2024-01-15T03:35:33;2.30;;;2.10;;
12921;SDS011;6528;48.086;16.282;2024-01-15T03:38:01;2.00;;;1.80;;
12921;SDS011;6528;48.086;16.282;2024-01-15T03:40:28;2.40;;;2.20;;
12921;SDS011;6528;48.086;16.282;2024-01-15T03:42:56;2.20;;;2.00;;
12921;SDS011;6528;48.086;16.282;2024-01-15T03:45:23;2.27;;;2.07;;
12921;SDS011;6528;48.086;16.282;2024-01-15T03:47:51;2.20;;;2.00;;
12921;SDS011;6528;48.086;16.282;2024-01-15T03:50:19;1.90;;;1.80;;
12921;SDS011;6528;48.086;16.282;2024-01-15T03:52:46;2.50;;;1.80;;
12921;SDS011;6528;48.086;16.282;2024-01-15T03:55:13;1.90;;;1.80;;
12921;SDS011;6528;48.086;16.282;2024-01-15T03:57:41;1.93;;;1.83;;
12921;SDS011;6528;48.086;16.282;2024-01-15T04:00:09;2.20;;;2.03;;
12921;SDS011;6528;48.086;16.282;2024-01-15T04:02:36;2.10;;;1.90;;
12921;SDS011;6528;48.086;16.282;2024-01-15T04:05:04;1.70;;;1.60;;
12921;SDS011;6528;48.086;16.282;2024-01-15T04:07:31;1.90;;;1.80;;
12921;SDS011;6528;48.086;16.282;2024-01-15T04:09:59;2.13;;;2.03;;
12921;SDS011;6528;48.086;16.282;2024-01-15T04:12:27;2.30;;;2.10;;
12921;SDS011;6528;48.086;16.282;2024-01-15T04:14:54;2.10;;;2.00;;
12921;SDS011;6528;48.086;16.282;2024-01-15T04:17:22;2.23;;;2.00;;
12921;SDS011;6528;48.086;16.282;2024-01-15T04:19:49;1.80;;;1.70;;
12921;SDS011;6528;48.086;16.282;2024-01-15T04:22:17;1.63;;;1.53;;
12921;SDS011;6528;48.086;16.282;2024-01-15T04:24:44;3.83;;;1.93;;
12921;SDS011;6528;48.086;16.282;2024-01-15T04:27:12;2.10;;;1.90;;
12921;SDS011;6528;48.086;16.282;2024-01-15T04:29:39;2.20;;;2.00;;
12921;SDS011;6528;48.086;16.282;2024-01-15T04:32:07;2.10;;;1.90;;
12921;SDS011;6528;48.086;16.282;2024-01-15T04:34:35;1.93;;;1.83;;
12921;SDS011;6528;48.086;16.282;2024-01-15T04:37:03;1.93;;;1.83;;
12921;SDS011;6528;48.086;16.282;2024-01-15T04:39:30;2.10;;;1.67;;
12921;SDS011;6528;48.086;16.282;2024-01-15T04:41:57;2.10;;;2.00;;
12921;SDS011;6528;48.086;16.282;2024-01-15T04:44:24;2.33;;;2.13;;
12921;SDS011;6528;48.086;16.282;2024-01-15T04:46:52;1.80;;;1.70;;
12921;SDS011;6528;48.086;16.282;2024-01-15T04:49:19;1.53;;;1.43;;
12921;SDS011;6528;48.086;16.282;2024-01-15T04:51:47;2.23;;;2.03;;
12921;SDS011;6528;48.086;16.282;2024-01-15T04:54:15;1.70;;;1.60;;
12921;SDS011;6528;48.086;16.282;2024-01-15T04:56:44;2.23;;;2.03;;
12921;SDS011;6528;48.086;16.282;2024-01-15T04:59:12;2.73;;;1.80;;
12921;SDS011;6528;48.086;16.282;2024-01-15T05:01:41;2.27;;;2.07;;
12921;SDS011;6528;48.086;16.282;2024-01-15T05:04:08;2.30;;;2.10;;
12921;SDS011;6528;48.086;16.282;2024-01-15T05:06:36;1.90;;;1.80;;
12921;SDS011;6528;48.086;16.282;2024-01-15T05:09:04;1.97;;;1.80;;
12921;SDS011;6528;48.086;16.282;2024-01-15T05:11:31;2.10;;;1.73;;
12921;SDS011;6528;48.086;16.282;2024-01-15T05:13:59;2.10;;;2.00;;
12921;SDS011;6528;48.086;16.282;2024-01-15T05:16:26;1.60;;;1.50;;
12921;SDS011;6528;48.086;16.282;2024-01-15T05:18:54;2.00;;;1.87;;
12921;SDS011;6528;48.086;16.282;2024-01-15T05:21:21;2.73;;;1.73;;
12921;SDS011;6528;48.086;16.282;2024-01-15T05:23:49;1.67;;;1.57;;
12921;SDS011;6528;48.086;16.282;2024-01-15T05:26:16;2.47;;;2.27;;
12921;SDS011;6528;48.086;16.282;2024-01-15T05:28:44;1.87;;;1.77;;
12921;SDS011;6528;48.086;16.282;2024-01-15T05:31:11;1.83;;;1.73;;
12921;SDS011;6528;48.086;16.282;2024-01-15T05:33:39;1.70;;;1.60;;
12921;SDS011;6528;48.086;16.282;2024-01-15T05:36:07;1.67;;;1.57;;
12921;SDS011;6528;48.086;16.282;2024-01-15T05:38:34;1.73;;;1.63;;
12921;SDS011;6528;48.086;16.282;2024-01-15T05:41:02;2.03;;;1.93;;
12921;SDS011;6528;48.086;16.282;2024-01-15T05:43:29;1.90;;;1.80;;
12921;SDS011;6528;48.086;16.282;2024-01-15T05:45:57;1.90;;;1.80;;
12921;SDS011;6528;48.086;16.282;2024-01-15T05:48:25;1.37;;;1.30;;
12921;SDS011;6528;48.086;16.282;2024-01-15T05:50:52;1.50;;;1.40;;
12921;SDS011;6528;48.086;16.282;2024-01-15T05:53:20;2.10;;;1.90;;
12921;SDS011;6528;48.086;16.282;2024-01-15T05:55:47;1.70;;;1.60;;
12921;SDS011;6528;48.086;16.282;2024-01-15T05:58:15;1.97;;;1.87;;
12921;SDS011;6528;48.086;16.282;2024-01-15T06:00:42;3.07;;;2.30;;
12921;SDS011;6528;48.086;16.282;2024-01-15T06:03:10;2.00;;;1.90;;
12921;SDS011;6528;48.086;16.282;2024-01-15T06:05:37;3.57;;;2.30;;
12921;SDS011;6528;48.086;16.282;2024-01-15T06:08:05;2.07;;;1.87;;
12921;SDS011;6528;48.086;16.282;2024-01-15T06:10:32;3.17;;;2.33;;
12921;SDS011;6528;48.086;16.282;2024-01-15T06:13:00;2.30;;;2.10;;
12921;SDS011;6528;48.086;16.282;2024-01-15T06:15:27;2.17;;;1.93;;
12921;SDS011;6528;48.086;16.282;2024-01-15T06:17:55;2.47;;;2.27;;
12921;SDS011;6528;48.086;16.282;2024-01-15T06:20:23;2.47;;;2.27;;
12921;SDS011;6528;48.086;16.282;2024-01-15T06:22:50;2.10;;;2.00;;
12921;SDS011;6528;48.086;16.282;2024-01-15T06:25:18;2.70;;;2.50;;
12921;SDS011;6528;48.086;16.282;2024-01-15T06:27:45;2.83;;;2.53;;
12921;SDS011;6528;48.086;16.282;2024-01-15T06:30:13;2.50;;;2.30;;
12921;SDS011;6528;48.086;16.282;2024-01-15T06:32:41;1.83;;;1.73;;
12921;SDS011;6528;48.086;16.282;2024-01-15T06:35:08;2.40;;;2.20;;
12921;SDS011;6528;48.086;16.282;2024-01-15T06:37:37;2.23;;;2.03;;
12921;SDS011;6528;48.086;16.282;2024-01-15T06:40:04;2.00;;;1.90;;
12921;SDS011;6528;48.086;16.282;2024-01-15T06:42:32;2.47;;;2.27;;
12921;SDS011;6528;48.086;16.282;2024-01-15T06:45:00;2.77;;;2.47;;
12921;SDS011;6528;48.086;16.282;2024-01-15T06:47:27;2.70;;;2.50;;
12921;SDS011;6528;48.086;16.282;2024-01-15T06:49:55;2.10;;;2.00;;
12921;SDS011;6528;48.086;16.282;2024-01-15T06:52:22;2.20;;;2.10;;
12921;SDS011;6528;48.086;16.282;2024-01-15T06:54:50;2.13;;;1.90;;
12921;SDS011;6528;48.086;16.282;2024-01-15T06:57:17;2.10;;;2.00;;
12921;SDS011;6528;48.086;16.282;2024-01-15T06:59:46;2.67;;;2.47;;
12921;SDS011;6528;48.086;16.282;2024-01-15T07:02:14;2.63;;;2.27;;
12921;SDS011;6528;48.086;16.282;2024-01-15T07:04:41;3.83;;;2.03;;
12921;SDS011;6528;48.086;16.282;2024-01-15T07:07:09;2.67;;;2.47;;
12921;SDS011;6528;48.086;16.282;2024-01-15T07:09:37;3.47;;;2.40;;
12921;SDS011;6528;48.086;16.282;2024-01-15T07:12:04;3.07;;;2.80;;
12921;SDS011;6528;48.086;16.282;2024-01-15T07:14:32;3.40;;;2.93;;
12921;SDS011;6528;48.086;16.282;2024-01-15T07:16:59;3.40;;;3.10;;
12921;SDS011;6528;48.086;16.282;2024-01-15T07:19:27;4.20;;;3.80;;
12921;SDS011;6528;48.086;16.282;2024-01-15T07:21:54;4.00;;;3.60;;
12921;SDS011;6528;48.086;16.282;2024-01-15T07:24:22;3.97;;;3.60;;
12921;SDS011;6528;48.086;16.282;2024-01-15T07:26:50;3.50;;;3.20;;
12921;SDS011;6528;48.086;16.282;2024-01-15T07:29:18;3.43;;;3.13;;
12921;SDS011;6528;48.086;16.282;2024-01-15T07:31:51;5.73;;;3.10;;
12921;SDS011;6528;48.086;16.282;2024-01-15T07:34:19;6.93;;;4.10;;
12921;SDS011;6528;48.086;16.282;2024-01-15T07:36:46;4.27;;;3.70;;
12921;SDS011;6528;48.086;16.282;2024-01-15T07:39:14;4.10;;;3.80;;
12921;SDS011;6528;48.086;16.282;2024-01-15T07:41:41;5.30;;;4.87;;
12921;SDS011;6528;48.086;16.282;2024-01-15T07:44:09;4.50;;;4.10;;
12921;SDS011;6528;48.086;16.282;2024-01-15T07:46:36;4.60;;;4.20;;
12921;SDS011;6528;48.086;16.282;2024-01-15T07:49:05;5.63;;;5.13;;
12921;SDS011;6528;48.086;16.282;2024-01-15T07:51:34;5.80;;;4.90;;
12921;SDS011;6528;48.086;16.282;2024-01-15T07:54:01;5.63;;;4.27;;
12921;SDS011;6528;48.086;16.282;2024-01-15T07:56:29;5.20;;;4.53;;
12921;SDS011;6528;48.086;16.282;2024-01-15T07:58:57;5.00;;;4.60;;
12921;SDS011;6528;48.086;16.282;2024-01-15T08:01:25;5.63;;;5.13;;
12921;SDS011;6528;48.086;16.282;2024-01-15T08:03:52;5.00;;;4.60;;
12921;SDS011;6528;48.086;16.282;2024-01-15T08:06:22;5.80;;;5.17;;
12921;SDS011;6528;48.086;16.282;2024-01-15T08:08:50;5.47;;;4.90;;
12921;SDS011;6528;48.086;16.282;2024-01-15T08:11:18;4.77;;;4.20;;
12921;SDS011;6528;48.086;16.282;2024-01-15T08:13:46;4.80;;;4.30;;
12921;SDS011;6528;48.086;16.282;2024-01-15T08:16:13;4.57;;;4.03;;
12921;SDS011;6528;48.086;16.282;2024-01-15T08:18:41;4.53;;;4.13;;
12921;SDS011;6528;48.086;16.282;2024-01-15T08:21:11;5.73;;;4.47;;
12921;SDS011;6528;48.086;16.282;2024-01-15T08:23:38;4.27;;;3.87;;
12921;SDS011;6528;48.086;16.282;2024-01-15T08:26:06;3.70;;;3.37;;
12921;SDS011;6528;48.086;16.282;2024-01-15T08:28:34;5.33;;;3.57;;
12921;SDS011;6528;48.086;16.282;2024-01-15T08:31:05;4.30;;;3.37;;
12921;SDS011;6528;48.086;16.282;2024-01-15T08:33:32;4.27;;;3.30;;
12921;SDS011;6528;48.086;16.282;2024-01-15T08:36:00;4.13;;;3.00;;
12921;SDS011;6528;48.086;16.282;2024-01-15T08:38:28;2.97;;;2.77;;
12921;SDS011;6528;48.086;16.282;2024-01-15T08:40:56;3.63;;;3.33;;
12921;SDS011;6528;48.086;16.282;2024-01-15T08:43:26;2.60;;;2.40;;
12921;SDS011;6528;48.086;16.282;2024-01-15T08:45:54;3.70;;;3.30;;
12921;SDS011;6528;48.086;16.282;2024-01-15T08:48:21;3.10;;;2.80;;
12921;SDS011;6528;48.086;16.282;2024-01-15T08:50:49;3.03;;;2.60;;
12921;SDS011;6528;48.086;16.282;2024-01-15T08:53:18;2.63;;;2.43;;
12921;SDS011;6528;48.086;16.282;2024-01-15T08:55:46;3.30;;;3.00;;
12921;SDS011;6528;48.086;16.282;2024-01-15T08:58:14;3.70;;;3.03;;
12921;SDS011;6528;48.086;16.282;2024-01-15T09:00:42;6.13;;;2.57;;
12921;SDS011;6528;48.086;16.282;2024-01-15T09:03:10;2.90;;;2.70;;
12921;SDS011;6528;48.086;16.282;2024-01-15T09:05:38;2.57;;;2.37;;
12921;SDS011;6528;48.086;16.282;2024-01-15T09:08:07;2.20;;;2.00;;
12921;SDS011;6528;48.086;16.282;2024-01-15T09:10:35;4.30;;;2.77;;
12921;SDS011;6528;48.086;16.282;2024-01-15T09:13:03;4.77;;;2.53;;
12921;SDS011;6528;48.086;16.282;2024-01-15T09:15:31;2.53;;;2.33;;
12921;SDS011;6528;48.086;16.282;2024-01-15T09:17:59;2.53;;;2.20;;
12921;SDS011;6528;48.086;16.282;2024-01-15T09:20:33;2.10;;;2.00;;
12921;SDS011;6528;48.086;16.282;2024-01-15T09:23:01;2.73;;;2.53;;
12921;SDS011;6528;48.086;16.282;2024-01-15T09:25:29;2.60;;;2.30;;
12921;SDS011;6528;48.086;16.282;2024-01-15T09:27:57;3.77;;;1.90;;
12921;SDS011;6528;48.086;16.282;2024-01-15T09:30:24;2.20;;;2.00;;
12921;SDS011;6528;48.086;16.282;2024-01-15T09:32:52;2.70;;;2.50;;
12921;SDS011;6528;48.086;16.282;2024-01-15T09:35:20;2.07;;;1.90;;
12921;SDS011;6528;48.086;16.282;2024-01-15T09:37:50;2.20;;;2.00;;
12921;SDS011;6528;48.086;16.282;2024-01-15T09:40:18;2.67;;;2.47;;
12921;SDS011;6528;48.086;16.282;2024-01-15T09:42:47;3.30;;;2.00;;
12921;SDS011;6528;48.086;16.282;2024-01-15T09:45:15;2.87;;;2.20;;
12921;SDS011;6528;48.086;16.282;2024-01-15T09:47:43;2.70;;;1.93;;
12921;SDS011;6528;48.086;16.282;2024-01-15T09:50:12;4.10;;;1.67;;
12921;SDS011;6528;48.086;16.282;2024-01-15T09:52:43;2.33;;;2.13;;
12921;SDS011;6528;48.086;16.282;2024-01-15T09:55:11;2.07;;;1.80;;
12921;SDS011;6528;48.086;16.282;2024-01-15T09:57:43;1.87;;;1.60;;
12921;SDS011;6528;48.086;16.282;2024-01-15T10:00:13;1.80;;;1.70;;
12921;SDS011;6528;48.086;16.282;2024-01-15T10:02:42;1.47;;;1.37;;
12921;SDS011;6528;48.086;16.282;2024-01-15T10:05:09;1.60;;;1.50;;
12921;SDS011;6528;48.086;16.282;2024-01-15T10:07:37;1.60;;;1.50;;
12921;SDS011;6528;48.086;16.282;2024-01-15T10:10:06;1.50;;;1.40;;
12921;SDS011;6528;48.086;16.282;2024-01-15T10:12:35;1.87;;;1.77;;
12921;SDS011;6528;48.086;16.282;2024-01-15T10:15:03;1.60;;;1.50;;
12921;SDS011;6528;48.086;16.282;2024-01-15T10:17:31;1.50;;;1.40;;
12921;SDS011;6528;48.086;16.282;2024-01-15T10:19:59;1.37;;;1.27;;
12921;SDS011;6528;48.086;16.282;2024-01-15T10:22:28;1.60;;;1.50;;
12921;SDS011;6528;48.086;16.282;2024-01-15T10:24:55;1.70;;;1.60;;
12921;SDS011;6528;48.086;16.282;2024-01-15T10:27:23;1.80;;;1.40;;
12921;SDS011;6528;48.086;16.282;2024-01-15T10:29:51;2.23;;;1.60;;
12921;SDS011;6528;48.086;16.282;2024-01-15T10:32:20;1.50;;;1.40;;
12921;SDS011;6528;48.086;16.282;2024-01-15T10:34:51;1.53;;;1.43;;
12921;SDS011;6528;48.086;16.282;2024-01-15T10:37:20;1.40;;;1.30;;
12921;SDS011;6528;48.086;16.282;2024-01-15T10:39:51;1.63;;;1.53;;
12921;SDS011;6528;48.086;16.282;2024-01-15T10:42:18;1.83;;;1.73;;
12921;SDS011;6528;48.086;16.282;2024-01-15T10:44:46;1.57;;;1.47;;
12921;SDS011;6528;48.086;16.282;2024-01-15T10:47:14;1.70;;;1.60;;
12921;SDS011;6528;48.086;16.282;2024-01-15T10:49:42;1.50;;;1.40;;
12921;SDS011;6528;48.086;16.282;2024-01-15T10:52:11;1.63;;;1.30;;
12921;SDS011;6528;48.086;16.282;2024-01-15T10:54:38;1.10;;;1.10;;
12921;SDS011;6528;48.086;16.282;2024-01-15T10:57:07;1.40;;;1.30;;
12921;SDS011;6528;48.086;16.282;2024-01-15T10:59:34;1.57;;;1.47;;
12921;SDS011;6528;48.086;16.282;2024-01-15T11:02:03;1.63;;;1.53;;
12921;SDS011;6528;48.086;16.282;2024-01-15T11:04:32;1.40;;;1.30;;
12921;SDS011;6528;48.086;16.282;2024-01-15T11:07:01;1.43;;;1.33;;
12921;SDS011;6528;48.086;16.282;2024-01-15T11:09:30;1.70;;;1.40;;
12921;SDS011;6528;48.086;16.282;2024-01-15T11:12:13;1.30;;;1.20;;
12921;SDS011;6528;48.086;16.282;2024-01-15T11:14:49;1.43;;;1.10;;
12921;SDS011;6528;48.086;16.282;2024-01-15T11:17:17;2.80;;;1.50;;
12921;SDS011;6528;48.086;16.282;2024-01-15T11:19:47;1.23;;;1.13;;
12921;SDS011;6528;48.086;16.282;2024-01-15T11:25:02;1.40;;;1.30;;
12921;SDS011;6528;48.086;16.282;2024-01-15T11:27:39;1.00;;;1.00;;
12921;SDS011;6528;48.086;16.282;2024-01-15T11:30:11;1.53;;;1.00;;
12921;SDS011;6528;48.086;16.282;2024-01-15T11:32:40;2.00;;;1.13;;
12921;SDS011;6528;48.086;16.282;2024-01-15T11:35:10;1.37;;;1.13;;
12921;SDS011;6528;48.086;16.282;2024-01-15T11:40:19;1.10;;;1.10;;
12921;SDS011;6528;48.086;16.282;2024-01-15T11:43:02;1.53;;;1.10;;
12921;SDS011;6528;48.086;16.282;2024-01-15T11:45:31;1.10;;;1.10;;
12921;SDS011;6528;48.086;16.282;2024-01-15T11:48:10;3.20;;;1.07;;
12921;SDS011;6528;48.086;16.282;2024-01-15T11:50:49;1.20;;;1.10;;
12921;SDS011;6528;48.086;16.282;2024-01-15T11:53:27;1.40;;;1.30;;
12921;SDS011;6528;48.086;16.282;2024-01-15T11:56:03;1.40;;;1.30;;
12921;SDS011;6528;48.086;16.282;2024-01-15T11:58:38;0.90;;;0.90;;
12921;SDS011;6528;48.086;16.282;2024-01-15T12:01:06;0.93;;;0.87;;
12921;SDS011;6528;48.086;16.282;2024-01-15T12:03:34;1.50;;;1.40;;
12921;SDS011;6528;48.086;16.282;2024-01-15T12:06:02;1.13;;;1.03;;
12921;SDS011;6528;48.086;16.282;2024-01-15T12:08:33;1.00;;;1.00;;
12921;SDS011;6528;48.086;16.282;2024-01-15T12:11:04;1.40;;;1.30;;
12921;SDS011;6528;48.086;16.282;2024-01-15T12:13:38;1.23;;;1.13;;
12921;SDS011;6528;48.086;16.282;2024-01-15T12:16:05;1.53;;;1.03;;
12921;SDS011;6528;48.086;16.282;2024-01-15T12:18:33;1.13;;;1.03;;
12921;SDS011;6528;48.086;16.282;2024-01-15T12:21:00;0.80;;;0.80;;
12921;SDS011;6528;48.086;16.282;2024-01-15T12:23:28;0.80;;;0.80;;
12921;SDS011;6528;48.086;16.282;2024-01-15T12:25:55;1.07;;;1.00;;
12921;SDS011;6528;48.086;16.282;2024-01-15T12:28:23;1.03;;;1.03;;
12921;SDS011;6528;48.086;16.282;2024-01-15T12:30:50;1.50;;;0.90;;
12921;SDS011;6528;48.086;16.282;2024-01-15T12:33:18;1.30;;;0.90;;
12921;SDS011;6528;48.086;16.282;2024-01-15T12:35:49;1.37;;;1.27;;
12921;SDS011;6528;48.086;16.282;2024-01-15T12:38:19;0.90;;;0.90;;
12921;SDS011;6528;48.086;16.282;2024-01-15T12:40:47;0.83;;;0.83;;
12921;SDS011;6528;48.086;16.282;2024-01-15T12:43:15;0.80;;;0.80;;
12921;SDS011;6528;48.086;16.282;2024-01-15T12:45:44;1.10;;;1.00;;
12921;SDS011;6528;48.086;16.282;2024-01-15T12:48:12;1.00;;;1.00;;
12921;SDS011;6528;48.086;16.282;2024-01-15T12:50:42;1.00;;;1.00;;
12921;SDS011;6528;48.086;16.282;2024-01-15T12:53:12;0.83;;;0.83;;
12921;SDS011;6528;48.086;16.282;2024-01-15T12:55:39;0.93;;;0.93;;
12921;SDS011;6528;48.086;16.282;2024-01-15T12:58:06;1.10;;;1.00;;
12921;SDS011;6528;48.086;16.282;2024-01-15T13:00:34;0.80;;;0.80;;
12921;SDS011;6528;48.086;16.282;2024-01-15T13:03:02;0.83;;;0.83;;
12921;SDS011;6528;48.086;16.282;2024-01-15T13:05:31;0.60;;;0.60;;
12921;SDS011;6528;48.086;16.282;2024-01-15T13:08:01;0.70;;;0.70;;
12921;SDS011;6528;48.086;16.282;2024-01-15T13:10:30;0.67;;;0.67;;
12921;SDS011;6528;48.086;16.282;2024-01-15T13:12:58;0.80;;;0.80;;
12921;SDS011;6528;48.086;16.282;2024-01-15T13:15:26;0.80;;;0.80;;
12921;SDS011;6528;48.086;16.282;2024-01-15T13:17:53;1.13;;;1.03;;
12921;SDS011;6528;48.086;16.282;2024-01-15T13:20:21;1.37;;;0.90;;
12921;SDS011;6528;48.086;16.282;2024-01-15T13:22:48;0.90;;;0.90;;
12921;SDS011;6528;48.086;16.282;2024-01-15T13:25:16;1.00;;;1.00;;
12921;SDS011;6528;48.086;16.282;2024-01-15T13:27:43;0.73;;;0.73;;
12921;SDS011;6528;48.086;16.282;2024-01-15T13:30:11;0.60;;;0.60;;
12921;SDS011;6528;48.086;16.282;2024-01-15T13:32:39;0.80;;;0.80;;
12921;SDS011;6528;48.086;16.282;2024-01-15T13:35:07;1.00;;;0.90;;
12921;SDS011;6528;48.086;16.282;2024-01-15T13:37:36;0.93;;;0.90;;
12921;SDS011;6528;48.086;16.282;2024-01-15T13:40:05;0.77;;;0.77;;
12921;SDS011;6528;48.086;16.282;2024-01-15T13:42:35;1.00;;;0.93;;
12921;SDS011;6528;48.086;16.282;2024-01-15T13:45:05;0.80;;;0.80;;
12921;SDS011;6528;48.086;16.282;2024-01-15T13:47:34;0.53;;;0.53;;
12921;SDS011;6528;48.086;16.282;2024-01-15T13:50:02;0.73;;;0.70;;
12921;SDS011;6528;48.086;16.282;2024-01-15T13:52:30;0.87;;;0.87;;
12921;SDS011;6528;48.086;16.282;2024-01-15T13:54:57;0.80;;;0.80;;
12921;SDS011;6528;48.086;16.282;2024-01-15T13:57:25;1.07;;;1.00;;
12921;SDS011;6528;48.086;16.282;2024-01-15T13:59:52;0.67;;;0.67;;
12921;SDS011;6528;48.086;16.282;2024-01-15T14:02:20;0.97;;;0.87;;
12921;SDS011;6528;48.086;16.282;2024-01-15T14:04:50;0.70;;;0.70;;
12921;SDS011;6528;48.086;16.282;2024-01-15T14:07:17;1.00;;;0.90;;
12921;SDS011;6528;48.086;16.282;2024-01-15T14:09:45;0.80;;;0.80;;
12921;SDS011;6528;48.086;16.282;2024-01-15T14:12:12;0.73;;;0.73;;
12921;SDS011;6528;48.086;16.282;2024-01-15T14:14:40;0.80;;;0.80;;
12921;SDS011;6528;48.086;16.282;2024-01-15T14:17:07;0.80;;;0.80;;
12921;SDS011;6528;48.086;16.282;2024-01-15T14:19:34;0.80;;;0.80;;
12921;SDS011;6528;48.086;16.282;2024-01-15T14:22:03;0.60;;;0.60;;
12921;SDS011;6528;48.086;16.282;2024-01-15T14:24:30;0.70;;;0.70;;
12921;SDS011;6528;48.086;16.282;2024-01-15T14:26:58;0.70;;;0.67;;
12921;SDS011;6528;48.086;16.282;2024-01-15T14:29:26;1.10;;;0.70;;
12921;SDS011;6528;48.086;16.282;2024-01-15T14:31:53;0.73;;;0.73;;
12921;SDS011;6528;48.086;16.282;2024-01-15T14:34:22;1.07;;;0.90;;
12921;SDS011;6528;48.086;16.282;2024-01-15T14:36:53;0.60;;;0.60;;
12921;SDS011;6528;48.086;16.282;2024-01-15T14:39:22;0.80;;;0.80;;
12921;SDS011;6528;48.086;16.282;2024-01-15T14:41:50;0.77;;;0.67;;
12921;SDS011;6528;48.086;16.282;2024-01-15T14:44:19;0.80;;;0.60;;
12921;SDS011;6528;48.086;16.282;2024-01-15T14:46:46;0.70;;;0.70;;
12921;SDS011;6528;48.086;16.282;2024-01-15T14:49:13;0.90;;;0.70;;
12921;SDS011;6528;48.086;16.282;2024-01-15T14:51:44;0.60;;;0.60;;
12921;SDS011;6528;48.086;16.282;2024-01-15T14:54:12;0.60;;;0.60;;
12921;SDS011;6528;48.086;16.282;2024-01-15T14:56:39;0.70;;;0.70;;
12921;SDS011;6528;48.086;16.282;2024-01-15T14:59:06;0.60;;;0.60;;